Time;durP1;ratioP1;P1;durP2;ratioP2;P2;SDS_P1;SDS_P2;PMS_P1;PMS_P2;Temp;Humidity;BMP_temperature;BMP_pressure;BME280_temperature;BME280_humidity;BME280_pressure;Samples;Min_cycle;Max_cycle;Signal;HPM_P1;HPM_P2
2021/10/20 00:02:13;;;;;;;1.38;0.68;;;19.90;70.10;;;;;;5100690;28;20044;-35
2021/10/20 00:04:39;;;;;;;2.13;0.67;;;19.90;69.90;;;;;;5100462;28;20032;-35
2021/10/20 00:07:05;;;;;;;1.23;0.70;;;19.90;69.90;;;;;;5103949;28;20132;-35
2021/10/20 00:09:31;;;;;;;1.10;0.70;;;19.90;70.00;;;;;;5108019;28;20047;-35
2021/10/20 00:11:57;;;;;;;3.67;0.95;;;19.90;69.90;;;;;;5108601;28;20095;-35
2021/10/20 00:14:23;;;;;;;0.90;0.70;;;19.80;69.90;;;;;;5100926;28;20059;-35
2021/10/20 00:16:49;;;;;;;1.77;0.85;;;19.80;69.90;;;;;;5101840;28;20463;-35
2021/10/20 00:19:16;;;;;;;1.77;0.82;;;19.80;69.90;;;;;;5101311;28;20058;-35
2021/10/20 00:21:42;;;;;;;1.38;0.80;;;19.80;69.90;;;;;;5101308;28;20031;-35
2021/10/20 00:24:08;;;;;;;2.33;0.77;;;19.80;69.90;;;;;;5097075;28;20040;-35
2021/10/20 00:26:34;;;;;;;1.17;0.93;;;19.80;70.00;;;;;;5100593;28;20496;-34
2021/10/20 00:29:01;;;;;;;2.42;0.82;;;19.90;69.90;;;;;;5102345;28;20035;-35
2021/10/20 00:31:27;;;;;;;1.33;0.70;;;19.80;69.90;;;;;;5096737;28;20032;-35
2021/10/20 00:33:53;;;;;;;1.00;0.80;;;19.80;69.80;;;;;;5101224;28;20050;-35
2021/10/20 00:36:19;;;;;;;2.67;0.85;;;19.80;69.60;;;;;;5096730;28;20031;-35
2021/10/20 00:38:45;;;;;;;1.67;0.60;;;19.80;69.50;;;;;;5090762;28;20098;-35
2021/10/20 00:41:12;;;;;;;1.20;0.90;;;19.80;69.30;;;;;;5096626;28;20042;-34
2021/10/20 00:43:39;;;;;;;1.92;0.60;;;19.80;69.40;;;;;;5092560;28;20021;-35
2021/10/20 00:46:05;;;;;;;1.48;0.70;;;19.80;69.40;;;;;;5100833;28;20050;-35
2021/10/20 00:48:31;;;;;;;0.65;0.50;;;19.80;69.20;;;;;;5100497;28;20027;-35
2021/10/20 00:50:57;;;;;;;2.63;0.80;;;19.80;69.20;;;;;;5100999;28;20036;-35
2021/10/20 00:53:24;;;;;;;1.13;0.75;;;19.70;69.10;;;;;;5078525;28;20020;-35
2021/10/20 00:55:50;;;;;;;1.50;0.90;;;19.70;69.10;;;;;;5096223;28;20096;-35
2021/10/20 00:58:16;;;;;;;1.60;1.00;;;19.70;69.10;;;;;;5102293;28;20539;-35
2021/10/20 01:00:43;;;;;;;1.70;1.17;;;19.70;69.00;;;;;;5101744;28;20023;-35
2021/10/20 01:03:09;;;;;;;1.60;0.70;;;19.70;69.00;;;;;;5100098;28;20039;-35
2021/10/20 01:05:35;;;;;;;1.60;0.90;;;19.70;69.00;;;;;;5100137;28;20021;-35
2021/10/20 01:08:01;;;;;;;1.85;1.13;;;19.70;69.00;;;;;;5102727;28;20055;-35
2021/10/20 01:10:27;;;;;;;1.02;0.90;;;19.60;69.00;;;;;;5096695;28;20097;-35
2021/10/20 01:12:53;;;;;;;0.80;0.80;;;19.60;68.80;;;;;;5074876;28;20477;-35
2021/10/20 01:15:22;;;;;;;0.82;0.75;;;19.60;68.90;;;;;;5098316;28;20039;-35
2021/10/20 01:17:48;;;;;;;1.40;0.80;;;19.60;68.90;;;;;;5103850;28;20024;-35
2021/10/20 01:20:15;;;;;;;1.02;0.90;;;19.60;68.90;;;;;;5100042;28;20024;-35
2021/10/20 01:22:41;;;;;;;1.50;1.02;;;19.60;69.70;;;;;;5099732;28;20020;-35
2021/10/20 01:25:08;;;;;;;1.20;0.90;;;19.60;69.00;;;;;;5097994;28;20032;-35
2021/10/20 01:27:34;;;;;;;1.50;0.95;;;19.60;69.00;;;;;;5086088;28;20028;-35
2021/10/20 01:30:00;;;;;;;1.13;0.90;;;19.60;69.80;;;;;;5099538;28;20133;-35
2021/10/20 01:32:27;;;;;;;1.10;0.80;;;19.50;69.10;;;;;;5099766;28;20051;-35
2021/10/20 01:34:56;;;;;;;0.98;0.90;;;19.50;69.10;;;;;;5097153;28;20028;-36
2021/10/20 01:37:23;;;;;;;0.98;0.68;;;19.50;69.10;;;;;;5099927;28;20077;-35
2021/10/20 01:39:49;;;;;;;1.15;0.88;;;19.50;69.10;;;;;;5073497;28;20035;-35
2021/10/20 01:42:15;;;;;;;1.10;0.90;;;19.50;69.20;;;;;;5103829;28;20032;-36
2021/10/20 01:44:41;;;;;;;2.33;0.98;;;19.50;69.20;;;;;;5099614;28;20024;-35
2021/10/20 01:47:07;;;;;;;2.78;1.10;;;19.50;69.20;;;;;;5099539;28;20036;-35
2021/10/20 01:49:34;;;;;;;2.03;0.98;;;19.40;69.20;;;;;;5103356;28;20040;-35
2021/10/20 01:52:00;;;;;;;1.50;1.07;;;19.40;69.10;;;;;;5093962;28;20028;-35
2021/10/20 01:54:26;;;;;;;0.90;0.80;;;19.40;69.20;;;;;;5092945;28;20029;-35
2021/10/20 01:56:54;;;;;;;1.15;1.00;;;19.40;69.20;;;;;;5095411;28;20047;-35
2021/10/20 01:59:20;;;;;;;1.25;0.98;;;19.40;69.20;;;;;;5095887;28;20016;-34
2021/10/20 02:01:46;;;;;;;1.45;1.05;;;19.40;69.30;;;;;;5103596;28;20028;-35
2021/10/20 02:04:13;;;;;;;1.40;1.08;;;19.40;69.30;;;;;;5099374;28;20063;-35
2021/10/20 02:06:41;;;;;;;1.85;0.80;;;19.30;69.20;;;;;;5103336;28;20062;-35
2021/10/20 02:09:08;;;;;;;1.10;1.00;;;19.30;69.30;;;;;;5097159;28;20504;-35
2021/10/20 02:11:35;;;;;;;2.27;0.90;;;19.30;69.30;;;;;;5097191;28;20388;-35
2021/10/20 02:14:02;;;;;;;1.33;1.00;;;19.30;69.40;;;;;;5103324;28;20053;-35
2021/10/20 02:16:28;;;;;;;2.45;1.00;;;19.30;69.40;;;;;;5089247;28;20082;-35
2021/10/20 02:18:54;;;;;;;1.13;0.93;;;19.20;69.40;;;;;;5103343;28;20059;-35
2021/10/20 02:21:20;;;;;;;1.17;1.08;;;19.20;69.40;;;;;;5098774;28;20016;-35
2021/10/20 02:23:47;;;;;;;0.85;0.85;;;19.20;69.40;;;;;;5096168;28;20040;-35
2021/10/20 02:26:13;;;;;;;0.93;0.83;;;19.20;69.40;;;;;;5097183;28;20012;-35
2021/10/20 02:28:39;;;;;;;1.05;0.95;;;19.20;69.50;;;;;;5099455;28;20035;-35
2021/10/20 02:31:05;;;;;;;2.47;0.90;;;19.20;70.20;;;;;;5098995;28;20020;-35
2021/10/20 02:33:31;;;;;;;1.63;1.00;;;19.20;69.60;;;;;;5093145;28;20024;-35
2021/10/20 02:35:57;;;;;;;1.90;1.10;;;19.10;69.50;;;;;;5102873;28;20512;-35
2021/10/20 02:38:25;;;;;;;1.23;0.88;;;19.10;69.60;;;;;;5099013;28;20033;-36
2021/10/20 02:40:51;;;;;;;1.42;1.20;;;19.10;69.60;;;;;;5097923;28;20187;-35
2021/10/20 02:43:17;;;;;;;1.90;1.27;;;19.10;69.60;;;;;;5098907;28;20020;-35
2021/10/20 02:45:44;;;;;;;1.40;0.90;;;19.10;69.60;;;;;;5102387;28;20431;-35
2021/10/20 02:48:10;;;;;;;1.33;1.00;;;19.10;69.70;;;;;;5103644;28;20253;-35
2021/10/20 02:50:36;;;;;;;1.50;0.90;;;19.00;69.70;;;;;;5103615;28;20127;-35
2021/10/20 02:53:02;;;;;;;1.73;1.10;;;19.00;69.70;;;;;;5103590;28;20035;-34
2021/10/20 02:55:29;;;;;;;1.15;1.02;;;19.00;69.70;;;;;;5102018;28;20118;-35
2021/10/20 02:57:56;;;;;;;1.60;1.17;;;19.00;69.90;;;;;;5086731;28;20021;-35
2021/10/20 03:00:22;;;;;;;1.38;1.13;;;19.00;69.90;;;;;;5085251;28;20064;-35
2021/10/20 03:02:48;;;;;;;0.90;0.90;;;19.00;69.80;;;;;;5102260;28;20024;-35
2021/10/20 03:05:15;;;;;;;2.80;1.10;;;19.00;69.90;;;;;;5103519;28;20032;-35
2021/10/20 03:07:48;;;;;;;5.95;1.17;;;18.90;69.80;;;;;;5103230;28;20085;-35
2021/10/20 03:10:14;;;;;;;1.27;1.00;;;18.90;69.90;;;;;;5102996;28;20032;-35
2021/10/20 03:12:41;;;;;;;2.37;1.30;;;18.90;69.90;;;;;;5103023;28;20108;-35
2021/10/20 03:15:07;;;;;;;1.48;1.23;;;18.90;70.00;;;;;;5103473;28;20265;-35
2021/10/20 03:17:34;;;;;;;1.73;1.23;;;18.90;70.00;;;;;;5103166;28;20032;-35
2021/10/20 03:20:00;;;;;;;2.22;1.20;;;18.90;70.10;;;;;;5102963;28;20035;-35
2021/10/20 03:22:26;;;;;;;1.30;1.17;;;18.90;70.10;;;;;;5101488;28;20392;-35
2021/10/20 03:24:52;;;;;;;2.20;1.17;;;18.90;70.10;;;;;;5103002;28;20050;-35
2021/10/20 03:27:19;;;;;;;1.55;1.17;;;18.80;70.10;;;;;;5103052;28;20087;-35
2021/10/20 03:29:45;;;;;;;1.65;1.20;;;18.80;70.10;;;;;;5103328;28;20070;-35
2021/10/20 03:32:11;;;;;;;1.95;1.13;;;18.80;70.20;;;;;;5102860;28;20032;-35
2021/10/20 03:34:37;;;;;;;1.58;1.30;;;18.80;70.20;;;;;;5103179;28;20032;-35
2021/10/20 03:37:03;;;;;;;1.85;1.40;;;18.80;70.30;;;;;;5103061;28;20024;-35
2021/10/20 03:39:30;;;;;;;1.20;1.10;;;18.80;70.30;;;;;;5102867;28;20036;-35
2021/10/20 03:41:56;;;;;;;1.20;1.00;;;18.80;70.30;;;;;;5103083;28;20493;-35
2021/10/20 03:44:22;;;;;;;1.67;1.27;;;18.70;70.20;;;;;;5102747;28;20032;-35
2021/10/20 03:46:48;;;;;;;1.48;1.23;;;18.70;70.20;;;;;;5103173;28;20024;-35
2021/10/20 03:49:14;;;;;;;1.52;1.27;;;18.70;70.30;;;;;;5104579;28;20028;-35
2021/10/20 03:51:40;;;;;;;2.20;1.25;;;18.70;70.30;;;;;;5106619;28;20151;-35
2021/10/20 03:54:06;;;;;;;1.52;1.38;;;18.70;70.30;;;;;;5106656;28;20035;-35
2021/10/20 03:56:32;;;;;;;1.27;1.17;;;18.70;70.40;;;;;;5106702;28;20527;-35
2021/10/20 03:58:59;;;;;;;1.30;1.20;;;18.60;70.40;;;;;;5106501;28;20020;-35
2021/10/20 04:01:25;;;;;;;2.17;1.40;;;18.60;70.40;;;;;;5106701;28;20027;-35
2021/10/20 04:03:51;;;;;;;1.58;1.35;;;18.60;70.40;;;;;;5104914;28;20050;-35
2021/10/20 04:06:17;;;;;;;1.52;1.40;;;18.60;70.50;;;;;;5106506;28;20056;-35
2021/10/20 04:08:43;;;;;;;1.45;1.27;;;18.60;70.50;;;;;;5106374;28;20024;-35
2021/10/20 04:11:09;;;;;;;1.80;1.35;;;18.60;70.50;;;;;;5106338;28;20024;-35
2021/10/20 04:13:36;;;;;;;1.45;1.20;;;18.60;70.60;;;;;;5106038;28;20031;-35
2021/10/20 04:16:02;;;;;;;1.70;1.42;;;18.50;70.60;;;;;;5106470;28;20032;-35
2021/10/20 04:18:28;;;;;;;1.42;1.30;;;18.50;70.50;;;;;;5104981;28;20043;-35
2021/10/20 04:20:54;;;;;;;1.67;1.45;;;18.50;70.60;;;;;;5106294;28;20135;-35
2021/10/20 04:23:20;;;;;;;2.28;1.23;;;18.50;70.60;;;;;;5105818;28;20024;-35
2021/10/20 04:25:46;;;;;;;1.45;1.10;;;18.50;70.60;;;;;;5106073;28;20052;-35
2021/10/20 04:28:12;;;;;;;2.25;1.30;;;18.50;70.70;;;;;;5105998;28;20028;-35
2021/10/20 04:30:39;;;;;;;2.78;1.13;;;18.50;70.70;;;;;;5105790;28;20042;-35
2021/10/20 04:33:05;;;;;;;1.45;1.35;;;18.50;70.70;;;;;;5105717;28;20020;-35
2021/10/20 04:35:31;;;;;;;1.35;1.25;;;18.40;70.70;;;;;;5102022;28;20031;-35
2021/10/20 04:37:57;;;;;;;2.80;1.55;;;18.40;70.80;;;;;;5085515;28;20021;-35
2021/10/20 04:40:23;;;;;;;1.50;1.35;;;18.40;70.80;;;;;;5085719;28;20054;-35
2021/10/20 04:42:50;;;;;;;2.90;1.60;;;18.40;70.80;;;;;;5085464;28;20035;-35
2021/10/20 04:45:16;;;;;;;1.98;1.60;;;18.40;70.80;;;;;;5085319;28;20054;-35
2021/10/20 04:47:42;;;;;;;1.75;1.40;;;18.40;70.90;;;;;;5085275;28;20374;-35
2021/10/20 04:50:10;;;;;;;1.80;1.48;;;18.40;70.90;;;;;;5084940;28;20072;-35
2021/10/20 04:52:36;;;;;;;2.60;1.65;;;18.40;71.10;;;;;;5085288;28;20429;-35
2021/10/20 04:55:06;;;;;;;1.90;1.58;;;18.30;71.00;;;;;;5084929;28;20040;-35
2021/10/20 04:57:32;;;;;;;3.80;1.45;;;18.30;71.00;;;;;;5085013;28;20085;-35
2021/10/20 04:59:59;;;;;;;2.30;1.58;;;18.30;71.10;;;;;;5083479;28;20032;-35
2021/10/20 05:02:25;;;;;;;1.83;1.52;;;18.30;71.00;;;;;;5085127;28;20501;-35
2021/10/20 05:04:51;;;;;;;2.00;1.45;;;18.30;71.10;;;;;;5102287;28;20092;-35
2021/10/20 05:07:17;;;;;;;2.03;1.48;;;18.30;71.10;;;;;;5105163;28;20067;-35
2021/10/20 05:09:45;;;;;;;1.55;1.45;;;18.20;71.00;;;;;;5105027;28;20032;-36
2021/10/20 05:12:11;;;;;;;1.75;1.45;;;18.30;71.10;;;;;;5105397;28;20063;-35
2021/10/20 05:14:45;;;;;;;1.60;1.50;;;18.20;71.10;;;;;;5104813;28;20020;-35
2021/10/20 05:17:11;;;;;;;2.78;1.40;;;18.20;71.20;;;;;;5105134;28;20096;-35
2021/10/20 05:19:37;;;;;;;1.58;1.45;;;18.20;71.20;;;;;;5104998;28;20032;-35
2021/10/20 05:22:06;;;;;;;3.08;1.42;;;18.20;71.30;;;;;;5104895;28;20081;-34
2021/10/20 05:24:34;;;;;;;1.50;1.35;;;18.20;71.30;;;;;;5104957;28;20024;-35
2021/10/20 05:27:00;;;;;;;1.65;1.55;;;18.20;71.30;;;;;;5104936;28;20039;-35
2021/10/20 05:29:32;;;;;;;1.88;1.60;;;18.20;71.30;;;;;;5104191;28;20036;-35
2021/10/20 05:31:59;;;;;;;3.45;1.75;;;18.10;71.20;;;;;;5104898;28;20031;-35
2021/10/20 05:34:25;;;;;;;;;;;18.10;71.30;;;;;;5104887;28;20043;-35
2021/10/20 05:36:51;;;;;;;1.75;1.40;;;18.10;71.40;;;;;;5104861;28;19908;-35
2021/10/20 05:39:17;;;;;;;1.80;1.60;;;18.10;71.40;;;;;;5104672;28;20053;-35
2021/10/20 05:41:43;;;;;;;2.25;1.70;;;18.10;71.40;;;;;;5104413;28;20024;-35
2021/10/20 05:44:12;;;;;;;2.35;1.52;;;18.10;71.50;;;;;;5101361;28;20115;-35
2021/10/20 05:46:38;;;;;;;2.08;1.55;;;18.10;71.50;;;;;;5104573;28;20135;-35
2021/10/20 05:49:04;;;;;;;2.38;1.80;;;18.10;71.60;;;;;;5104214;28;20028;-35
2021/10/20 05:51:30;;;;;;;2.10;1.48;;;18.00;71.50;;;;;;5104376;28;20040;-35
2021/10/20 05:53:57;;;;;;;1.98;1.60;;;18.00;71.50;;;;;;5103877;28;20088;-35
2021/10/20 05:56:23;;;;;;;1.77;1.63;;;18.00;71.50;;;;;;5104272;28;20030;-35
2021/10/20 05:58:49;;;;;;;1.95;1.63;;;18.00;71.50;;;;;;5104116;28;20031;-35
2021/10/20 06:01:15;;;;;;;2.20;1.30;;;18.00;71.60;;;;;;5103908;28;20032;-35
2021/10/20 06:03:41;;;;;;;1.83;1.58;;;18.00;71.70;;;;;;5104282;28;20558;-35
2021/10/20 06:06:07;;;;;;;1.70;1.60;;;18.00;71.70;;;;;;5103645;28;20039;-35
2021/10/20 06:08:33;;;;;;;1.48;1.30;;;17.90;71.70;;;;;;5104053;28;20023;-35
2021/10/20 06:11:00;;;;;;;1.70;1.60;;;17.90;71.60;;;;;;5103614;28;20044;-35
2021/10/20 06:13:26;;;;;;;1.75;1.63;;;17.90;71.70;;;;;;5103567;28;20088;-35
2021/10/20 06:15:52;;;;;;;2.10;1.60;;;17.90;71.70;;;;;;5103824;28;20577;-35
2021/10/20 06:18:18;;;;;;;1.70;1.50;;;17.90;71.70;;;;;;5103790;28;20039;-35
2021/10/20 06:20:44;;;;;;;1.88;1.60;;;17.90;71.80;;;;;;5103949;28;20087;-35
2021/10/20 06:23:10;;;;;;;1.85;1.60;;;17.90;71.80;;;;;;5102492;28;20054;-35
2021/10/20 06:25:36;;;;;;;2.55;1.73;;;17.90;71.90;;;;;;5103409;28;20024;-35
2021/10/20 06:28:03;;;;;;;1.58;1.38;;;17.90;71.90;;;;;;5103618;28;20028;-35
2021/10/20 06:30:29;;;;;;;1.92;1.40;;;17.90;71.90;;;;;;5103796;28;20043;-35
2021/10/20 06:32:55;;;;;;;1.63;1.50;;;17.80;71.90;;;;;;5103625;28;20048;-35
2021/10/20 06:35:21;;;;;;;1.50;1.40;;;17.80;71.90;;;;;;5102823;28;20020;-35
2021/10/20 06:37:50;;;;;;;1.58;1.45;;;17.80;71.90;;;;;;5102174;28;20034;-35
2021/10/20 06:40:17;;;;;;;1.50;1.27;;;17.80;71.90;;;;;;5103451;28;20084;-35
2021/10/20 06:42:43;;;;;;;1.88;1.58;;;17.80;71.90;;;;;;5100305;28;20024;-35
2021/10/20 06:45:09;;;;;;;2.00;1.60;;;17.80;71.90;;;;;;5103218;28;20032;-35
2021/10/20 06:47:35;;;;;;;1.70;1.60;;;17.80;72.00;;;;;;5103383;28;20032;-35
2021/10/20 06:50:02;;;;;;;3.97;1.60;;;17.80;72.00;;;;;;5103421;28;20039;-35
2021/10/20 06:52:28;;;;;;;1.42;1.30;;;17.80;72.00;;;;;;5103258;28;20457;-35
2021/10/20 06:54:55;;;;;;;1.73;1.52;;;17.70;72.10;;;;;;5103088;28;20032;-35
2021/10/20 06:57:21;;;;;;;1.65;1.52;;;17.70;72.10;;;;;;5103302;28;20028;-35
2021/10/20 06:59:47;;;;;;;2.03;1.50;;;17.70;72.10;;;;;;5103449;28;20578;-35
2021/10/20 07:02:13;;;;;;;2.40;1.58;;;17.70;72.10;;;;;;5103078;28;20031;-35
2021/10/20 07:04:39;;;;;;;1.75;1.30;;;17.70;72.10;;;;;;5103192;28;20502;-35
2021/10/20 07:07:10;;;;;;;2.13;1.75;;;17.70;72.10;;;;;;5102696;28;20043;-35
2021/10/20 07:09:36;;;;;;;2.45;1.27;;;17.70;72.10;;;;;;5102829;28;20096;-35
2021/10/20 07:12:03;;;;;;;1.80;1.63;;;17.70;72.20;;;;;;5103076;28;20028;-35
2021/10/20 07:14:29;;;;;;;1.83;1.50;;;17.70;72.30;;;;;;5103087;28;20124;-35
2021/10/20 07:16:57;;;;;;;1.90;1.67;;;17.60;72.20;;;;;;5103051;28;20032;-35
2021/10/20 07:19:24;;;;;;;2.22;1.50;;;17.70;72.30;;;;;;5103036;28;20061;-35
2021/10/20 07:21:51;;;;;;;2.25;1.73;;;17.60;72.30;;;;;;5102869;28;20092;-35
2021/10/20 07:24:17;;;;;;;1.77;1.60;;;17.60;72.30;;;;;;5106444;28;20038;-35
2021/10/20 07:26:43;;;;;;;1.80;1.67;;;17.60;72.30;;;;;;5106931;28;20032;-35
2021/10/20 07:29:09;;;;;;;2.30;1.60;;;17.60;72.30;;;;;;5107175;28;20058;-35
2021/10/20 07:31:35;;;;;;;1.77;1.42;;;17.60;72.30;;;;;;5106547;28;20032;-35
2021/10/20 07:34:01;;;;;;;1.95;1.65;;;17.60;72.30;;;;;;5106919;28;20032;-35
2021/10/20 07:36:28;;;;;;;2.50;1.83;;;17.60;72.40;;;;;;5106508;28;20043;-35
2021/10/20 07:38:54;;;;;;;1.87;1.67;;;17.50;72.40;;;;;;5106895;28;20046;-35
2021/10/20 07:41:21;;;;;;;1.77;1.52;;;17.50;72.40;;;;;;5105721;28;20296;-35
2021/10/20 07:43:47;;;;;;;2.70;1.58;;;17.50;72.50;;;;;;5106723;28;20028;-35
2021/10/20 07:46:13;;;;;;;1.85;1.40;;;17.50;72.50;;;;;;5106543;28;20028;-35
2021/10/20 07:48:39;;;;;;;1.65;1.55;;;17.50;72.40;;;;;;5106733;28;20078;-35
2021/10/20 07:51:05;;;;;;;2.35;1.77;;;17.50;72.50;;;;;;5106450;28;20040;-35
2021/10/20 07:53:32;;;;;;;1.60;1.48;;;17.50;72.50;;;;;;5106688;28;20097;-36
2021/10/20 07:55:58;;;;;;;1.88;1.65;;;17.50;72.60;;;;;;5106284;28;20495;-35
2021/10/20 07:58:24;;;;;;;2.05;1.67;;;17.50;72.60;;;;;;5106547;28;20020;-35
2021/10/20 08:00:50;;;;;;;1.73;1.30;;;17.50;72.50;;;;;;5106443;28;20466;-35
2021/10/20 08:03:16;;;;;;;2.08;1.45;;;17.40;72.40;;;;;;5106273;28;20027;-35
2021/10/20 08:05:42;;;;;;;2.03;1.40;;;17.40;72.50;;;;;;5106372;28;20458;-36
2021/10/20 08:08:10;;;;;;;1.92;1.63;;;17.40;72.50;;;;;;5105983;28;20052;-35
2021/10/20 08:10:36;;;;;;;1.83;1.50;;;17.40;72.50;;;;;;5106157;28;20098;-35
2021/10/20 08:13:02;;;;;;;2.35;1.33;;;17.40;72.60;;;;;;5104844;28;20020;-35
2021/10/20 08:15:29;;;;;;;2.03;1.55;;;17.40;72.70;;;;;;5106229;28;20032;-35
2021/10/20 08:17:56;;;;;;;2.38;1.92;;;17.40;72.70;;;;;;5105852;28;20024;-35
2021/10/20 08:20:23;;;;;;;2.17;1.63;;;17.40;72.70;;;;;;5106283;28;20024;-35
2021/10/20 08:22:49;;;;;;;1.67;1.58;;;17.40;72.70;;;;;;5104478;28;20497;-35
2021/10/20 08:25:16;;;;;;;1.98;1.50;;;17.30;72.70;;;;;;5105868;28;20047;-35
2021/10/20 08:27:42;;;;;;;1.67;1.40;;;17.30;72.70;;;;;;5105790;28;20034;-35
2021/10/20 08:30:16;;;;;;;1.67;1.50;;;17.30;72.70;;;;;;5105690;28;20032;-35
2021/10/20 08:32:42;;;;;;;2.22;1.58;;;17.30;72.70;;;;;;5105896;28;20024;-35
2021/10/20 08:35:08;;;;;;;1.70;1.50;;;17.30;72.80;;;;;;5102825;28;20020;-35
2021/10/20 08:37:34;;;;;;;1.67;1.58;;;17.30;72.80;;;;;;5103941;28;20050;-35
2021/10/20 08:40:01;;;;;;;2.35;1.70;;;17.30;72.90;;;;;;5105404;28;20092;-35
2021/10/20 08:42:27;;;;;;;2.35;1.70;;;17.30;72.90;;;;;;5105602;28;20706;-35
2021/10/20 08:44:55;;;;;;;2.30;1.60;;;17.30;73.00;;;;;;5087469;28;20035;-35
2021/10/20 08:47:21;;;;;;;2.25;1.60;;;17.20;72.80;;;;;;5105357;28;20092;-35
2021/10/20 08:49:47;;;;;;;1.73;1.55;;;17.30;72.90;;;;;;5105556;28;20047;-35
2021/10/20 08:52:14;;;;;;;2.88;1.83;;;17.30;73.00;;;;;;5103779;28;20028;-35
2021/10/20 08:54:40;;;;;;;1.92;1.52;;;17.30;73.00;;;;;;5105187;28;20055;-35
2021/10/20 08:57:06;;;;;;;2.55;1.75;;;17.20;72.90;;;;;;5105220;28;20024;-35
2021/10/20 08:59:35;;;;;;;1.90;1.70;;;17.20;72.90;;;;;;5105297;28;20066;-35
2021/10/20 09:02:04;;;;;;;2.15;1.70;;;17.20;73.00;;;;;;5105200;28;20131;-35
2021/10/20 09:04:32;;;;;;;2.78;1.70;;;17.10;73.00;;;;;;5104057;28;20024;-35
2021/10/20 09:07:01;;;;;;;1.80;1.50;;;17.10;73.00;;;;;;5086301;28;20124;-35
2021/10/20 09:09:33;;;;;;;1.95;1.77;;;17.20;73.10;;;;;;5104839;28;20040;-36
2021/10/20 09:11:59;;;;;;;2.15;1.58;;;17.10;73.80;;;;;;5104988;28;20020;-35
2021/10/20 09:14:25;;;;;;;2.00;1.80;;;17.20;73.10;;;;;;5105012;28;20031;-35
2021/10/20 09:16:51;;;;;;;2.75;1.70;;;17.10;73.00;;;;;;5104756;28;20046;-35
2021/10/20 09:19:21;;;;;;;2.03;1.70;;;17.10;73.00;;;;;;5104795;28;20024;-35
2021/10/20 09:21:55;;;;;;;2.20;1.55;;;17.10;73.00;;;;;;5104771;28;20023;-35
2021/10/20 09:24:22;;;;;;;2.13;1.83;;;17.10;73.10;;;;;;5103336;28;20029;-35
2021/10/20 09:26:51;;;;;;;2.17;1.70;;;17.00;73.10;;;;;;5103281;28;20028;-35
2021/10/20 09:29:22;;;;;;;2.17;1.75;;;17.00;73.10;;;;;;5103205;28;20099;-35
2021/10/20 09:31:48;;;;;;;2.42;1.52;;;17.10;73.20;;;;;;5104679;28;20054;-35
2021/10/20 09:34:14;;;;;;;2.30;1.70;;;17.00;73.10;;;;;;5104694;28;20020;-35
2021/10/20 09:36:40;;;;;;;2.30;1.73;;;17.10;73.10;;;;;;5104030;28;20056;-35
2021/10/20 09:39:09;;;;;;;2.70;1.80;;;17.00;73.20;;;;;;5104079;28;20031;-36
2021/10/20 09:41:35;;;;;;;1.83;1.63;;;17.00;73.20;;;;;;5104467;28;20024;-35
2021/10/20 09:44:02;;;;;;;5.53;1.88;;;17.00;73.20;;;;;;5104425;28;20032;-35
2021/10/20 09:46:36;;;;;;;1.85;1.65;;;17.00;73.20;;;;;;5103390;28;20119;-35
2021/10/20 09:49:03;;;;;;;2.35;1.75;;;17.00;73.30;;;;;;5104044;28;20030;-35
2021/10/20 09:51:36;;;;;;;2.15;1.55;;;17.00;73.30;;;;;;5104321;28;20034;-35
2021/10/20 09:54:02;;;;;;;1.98;1.65;;;17.00;73.30;;;;;;5087001;28;20013;-35
2021/10/20 09:56:34;;;;;;;2.10;1.73;;;17.00;73.30;;;;;;5086084;28;20111;-35
2021/10/20 09:59:00;;;;;;;3.38;1.92;;;16.90;73.40;;;;;;5103781;28;20024;-36
2021/10/20 10:01:28;;;;;;;2.08;1.60;;;16.90;73.40;;;;;;5103950;28;20096;-36
2021/10/20 10:04:02;;;;;;;4.10;2.08;;;16.90;73.40;;;;;;5104022;28;20066;-38
2021/10/20 10:06:29;;;;;;;2.08;1.83;;;16.90;73.40;;;;;;5103564;28;20040;-35
2021/10/20 10:08:55;;;;;;;2.70;2.00;;;16.90;73.40;;;;;;5103627;28;20027;-35
2021/10/20 10:11:21;;;;;;;1.77;1.67;;;16.90;73.40;;;;;;5103994;28;20039;-35
2021/10/20 10:13:52;;;;;;;2.10;1.70;;;16.90;73.40;;;;;;5102513;28;20035;-35
2021/10/20 10:16:23;;;;;;;2.15;1.80;;;16.80;73.40;;;;;;5103932;28;20024;-36
2021/10/20 10:18:50;;;;;;;2.53;1.83;;;16.90;73.50;;;;;;5102143;28;20028;-36
2021/10/20 10:21:30;;;;;;;2.67;1.92;;;16.90;73.50;;;;;;5102276;28;20449;-35
2021/10/20 10:23:57;;;;;;;2.42;1.60;;;16.80;73.50;;;;;;5103700;28;20047;-35
2021/10/20 10:26:24;;;;;;;2.28;1.90;;;16.80;73.50;;;;;;5103720;28;20016;-35
2021/10/20 10:29:10;;;;;;;2.05;1.75;;;16.80;73.50;;;;;;5102062;28;20040;-35
2021/10/20 10:31:41;;;;;;;2.05;1.45;;;16.80;73.60;;;;;;5094564;28;20087;-35
2021/10/20 10:34:16;;;;;;;2.72;1.83;;;16.80;73.60;;;;;;5103603;28;20549;-35
2021/10/20 10:36:52;;;;;;;2.42;1.90;;;16.80;73.60;;;;;;5086238;28;20094;-35
2021/10/20 10:39:19;;;;;;;2.08;1.60;;;16.80;73.60;;;;;;5092809;28;20032;-35
2021/10/20 10:41:53;;;;;;;2.28;1.70;;;16.70;73.50;;;;;;5103333;28;20028;-35
2021/10/20 10:44:22;;;;;;;2.95;2.00;;;16.80;73.60;;;;;;5103429;28;20020;-35
2021/10/20 10:46:54;;;;;;;2.33;2.00;;;16.80;73.60;;;;;;5103214;28;20031;-35
2021/10/20 10:49:43;;;;;;;2.33;1.67;;;16.70;73.60;;;;;;5103271;28;20063;-35
2021/10/20 10:52:33;;;;;;;1.73;1.42;;;16.70;73.60;;;;;;5103078;28;20084;-35
2021/10/20 10:55:23;;;;;;;2.20;1.90;;;16.70;73.60;;;;;;5103131;28;20036;-35
2021/10/20 10:57:56;;;;;;;2.13;1.73;;;16.70;73.70;;;;;;5102867;28;20038;-35
2021/10/20 11:00:22;;;;;;;2.53;1.60;;;16.70;73.70;;;;;;5103003;28;20044;-35
2021/10/20 11:02:56;;;;;;;1.90;1.50;;;16.70;73.70;;;;;;5103112;28;20024;-35
2021/10/20 11:05:24;;;;;;;2.00;1.70;;;16.70;73.80;;;;;;5103039;28;20039;-35
2021/10/20 11:07:51;;;;;;;2.20;1.85;;;16.60;73.70;;;;;;5102977;28;20063;-35
2021/10/20 11:10:18;;;;;;;2.10;1.88;;;16.60;73.80;;;;;;5102875;28;20042;-35
2021/10/20 11:12:48;;;;;;;2.67;1.95;;;16.60;73.80;;;;;;5103115;28;20024;-35
2021/10/20 11:15:14;;;;;;;3.25;1.90;;;16.60;73.80;;;;;;5102523;28;20427;-35
2021/10/20 11:17:41;;;;;;;2.25;1.88;;;16.60;73.80;;;;;;5102554;28;20032;-35
2021/10/20 11:20:08;;;;;;;1.95;1.75;;;16.60;73.80;;;;;;5102659;28;20051;-35
2021/10/20 11:22:34;;;;;;;2.20;2.00;;;16.60;73.80;;;;;;5102777;28;20043;-35
2021/10/20 11:25:02;;;;;;;2.33;1.70;;;16.60;73.90;;;;;;5102901;28;20091;-35
2021/10/20 11:27:29;;;;;;;2.17;1.80;;;16.60;73.90;;;;;;5102913;28;20051;-35
2021/10/20 11:29:55;;;;;;;2.17;1.80;;;16.60;73.80;;;;;;5102530;28;20028;-35
2021/10/20 11:32:22;;;;;;;2.50;1.50;;;16.60;73.90;;;;;;5102769;28;20062;-35
2021/10/20 11:34:48;;;;;;;2.45;1.83;;;16.50;74.60;;;;;;5084894;28;20021;-35
2021/10/20 11:37:15;;;;;;;2.40;1.88;;;16.50;74.00;;;;;;5101379;28;20028;-35
2021/10/20 11:39:42;;;;;;;2.55;1.83;;;16.50;74.00;;;;;;5102614;28;20023;-35
2021/10/20 11:42:12;;;;;;;2.17;1.67;;;16.50;73.90;;;;;;5102843;28;20032;-35
2021/10/20 11:44:39;;;;;;;2.28;1.90;;;16.50;73.90;;;;;;5101473;28;20027;-35
2021/10/20 11:47:09;;;;;;;;;;;16.50;74.00;;;;;;5101022;28;20032;-36
2021/10/20 11:49:36;;;;;;;2.15;1.88;;;16.50;74.00;;;;;;5102470;28;19920;-35
2021/10/20 11:52:06;;;;;;;1.73;1.63;;;16.50;74.00;;;;;;5102836;28;20039;-35
2021/10/20 11:54:32;;;;;;;3.15;1.65;;;16.50;74.70;;;;;;5101324;28;20028;-35
2021/10/20 11:56:58;;;;;;;2.05;1.70;;;16.50;74.10;;;;;;5102565;28;20028;-35
2021/10/20 11:59:26;;;;;;;2.20;2.00;;;16.50;74.10;;;;;;5101093;28;20024;-35
2021/10/20 12:01:52;;;;;;;2.42;1.80;;;16.40;74.10;;;;;;5102602;28;20055;-35
2021/10/20 12:04:19;;;;;;;2.25;1.70;;;16.40;74.00;;;;;;5102693;28;20099;-36
2021/10/20 12:06:47;;;;;;;2.33;1.88;;;16.40;74.10;;;;;;5102211;28;20084;-35
2021/10/20 12:09:13;;;;;;;;;;;16.40;74.10;;;;;;5101810;28;20096;-35
2021/10/20 12:11:39;;;;;;;2.17;1.77;;;16.40;74.20;;;;;;5084390;28;19908;-35
2021/10/20 12:14:06;;;;;;;2.38;1.80;;;16.40;74.10;;;;;;5068003;28;20062;-35
2021/10/20 12:16:33;;;;;;;2.63;2.00;;;16.40;74.20;;;;;;5085895;28;20066;-35
2021/10/20 12:18:59;;;;;;;2.45;1.55;;;16.40;74.20;;;;;;5084505;28;20048;-35
2021/10/20 12:21:31;;;;;;;2.72;1.98;;;16.40;74.20;;;;;;5084045;28;20025;-35
2021/10/20 12:24:01;;;;;;;1.70;1.60;;;16.30;74.20;;;;;;5085689;28;20143;-35
2021/10/20 12:26:28;;;;;;;2.88;1.60;;;16.30;74.10;;;;;;5085442;28;20028;-35
2021/10/20 12:28:55;;;;;;;2.15;1.92;;;16.30;74.20;;;;;;5085616;28;20028;-35
2021/10/20 12:31:22;;;;;;;2.65;1.73;;;16.30;74.10;;;;;;5083837;28;20049;-35
2021/10/20 12:33:50;;;;;;;;;;;16.30;74.20;;;;;;5085883;28;20080;-35
2021/10/20 12:36:19;;;;;;;1.80;1.65;;;16.30;74.20;;;;;;5096159;28;19998;-35
2021/10/20 12:38:46;;;;;;;3.13;1.90;;;16.30;74.20;;;;;;5102998;28;20023;-35
2021/10/20 12:41:14;;;;;;;2.47;1.52;;;16.30;74.30;;;;;;5104346;28;20028;-35
2021/10/20 12:43:41;;;;;;;2.08;1.80;;;16.30;74.30;;;;;;5105624;28;20042;-36
2021/10/20 12:46:07;;;;;;;2.25;1.90;;;16.30;74.30;;;;;;5104168;28;20020;-35
2021/10/20 12:48:34;;;;;;;2.10;1.85;;;16.30;74.20;;;;;;5105596;28;20028;-35